createdAt,value
2023-03-31T00:00:48.515Z,99431.84
2023-03-31T00:03:52.168Z,99427.19
2023-03-31T00:06:56.578Z,99430.25
2023-03-31T00:10:16.784Z,99424.06
2023-03-31T00:13:20.824Z,99428.31
2023-03-31T00:16:24.234Z,99428.31
2023-03-31T00:19:29.189Z,99429.37
2023-03-31T00:22:32.453Z,99433.28
2023-03-31T00:25:35.538Z,99423.94
2023-03-31T00:28:39.837Z,99418.53
2023-03-31T00:31:42.811Z,99416.59
2023-03-31T00:34:46.872Z,99413.50
2023-03-31T00:37:49.775Z,99400.56
2023-03-31T00:40:53.892Z,99403.97
2023-03-31T00:44:01.695Z,99409.81
2023-03-31T00:47:13.896Z,99407.00
2023-03-31T00:50:21.482Z,99400.00
2023-03-31T00:53:27.293Z,99403.56
2023-03-31T00:56:34.297Z,99405.59
2023-03-31T00:59:41.552Z,99400.56
2023-03-31T01:02:58.310Z,99396.75
2023-03-31T01:06:05.229Z,99402.91
2023-03-31T01:09:08.489Z,99395.91
2023-03-31T01:12:11.940Z,99389.28
2023-03-31T01:15:15.156Z,99392.38
2023-03-31T01:18:22.056Z,99391.53
2023-03-31T01:22:00.047Z,99389.19
2023-03-31T01:25:24.227Z,99388.47
2023-03-31T01:28:55.119Z,99399.25
2023-03-31T01:32:24.957Z,99408.41
2023-03-31T01:35:31.253Z,99412.63
2023-03-31T01:38:49.705Z,99407.22
2023-03-31T01:42:01.749Z,99396.38
2023-03-31T01:45:12.478Z,99392.03
2023-03-31T01:48:21.372Z,99402.12
2023-03-31T01:51:47.705Z,99393.53
2023-03-31T01:54:56.388Z,99396.22
2023-03-31T01:58:06.142Z,99387.97
2023-03-31T02:01:17.072Z,99389.19
2023-03-31T02:04:23.988Z,99383.75
2023-03-31T02:07:37.596Z,99383.28
2023-03-31T02:10:43.193Z,99382.41
2023-03-31T02:13:49.082Z,99383.22
2023-03-31T02:16:53.980Z,99394.72
2023-03-31T02:20:02.074Z,99393.16
2023-03-31T02:23:05.737Z,99381.88
2023-03-31T02:26:16.110Z,99380.22
2023-03-31T02:29:20.079Z,99380.09
2023-03-31T02:32:32.278Z,99375.75
2023-03-31T02:35:36.894Z,99394.50
2023-03-31T02:38:46.940Z,99380.50
2023-03-31T02:41:50.240Z,99359.91
2023-03-31T02:44:55.096Z,99357.03
2023-03-31T02:47:58.213Z,99350.81
2023-03-31T02:51:08.853Z,99360.13
2023-03-31T02:54:21.668Z,99354.72
2023-03-31T02:57:37.738Z,99357.41
2023-03-31T03:01:01.343Z,99364.84
2023-03-31T03:04:30.113Z,99363.94
2023-03-31T03:07:37.795Z,99364.75
2023-03-31T03:11:01.231Z,99361.31
2023-03-31T03:14:28.801Z,99367.09
2023-03-31T03:17:42.616Z,99358.88
2023-03-31T03:20:49.381Z,99342.59
2023-03-31T03:23:54.924Z,99348.28
2023-03-31T03:26:57.874Z,99352.31
2023-03-31T03:30:02.836Z,99357.78
2023-03-31T03:33:07.114Z,99371.69
2023-03-31T03:36:10.849Z,99361.97
2023-03-31T03:39:13.756Z,99363.09
2023-03-31T03:42:17.175Z,99362.84
2023-03-31T03:45:20.078Z,99357.75
2023-03-31T03:48:23.330Z,99355.47
2023-03-31T03:51:26.301Z,99354.28
2023-03-31T03:54:29.559Z,99346.91
2023-03-31T03:57:32.521Z,99356.78
2023-03-31T04:00:35.821Z,99355.25
2023-03-31T04:03:39.044Z,99343.09
2023-03-31T04:06:42.471Z,99341.44
2023-03-31T04:09:45.694Z,99343.47
2023-03-31T04:12:48.594Z,99340.72
2023-03-31T04:15:51.899Z,99340.34
2023-03-31T04:18:59.699Z,99338.22
2023-03-31T04:22:03.234Z,99345.37
2023-03-31T04:25:10.697Z,99343.50
2023-03-31T04:28:14.805Z,99348.16
2023-03-31T04:31:25.505Z,99337.94
2023-03-31T04:34:35.585Z,99346.31
2023-03-31T04:37:39.090Z,99334.94
2023-03-31T04:40:42.315Z,99331.00
2023-03-31T04:43:45.826Z,99335.19
2023-03-31T04:46:49.162Z,99327.06
2023-03-31T04:49:52.082Z,99325.81
2023-03-31T04:52:55.333Z,99340.47
2023-03-31T04:55:58.517Z,99331.16
2023-03-31T04:59:03.938Z,99326.94
2023-03-31T05:02:07.184Z,99328.28
2023-03-31T05:05:12.341Z,99320.69
2023-03-31T05:08:15.512Z,99318.38
2023-03-31T05:11:18.750Z,99307.63
2023-03-31T05:14:22.152Z,99309.63
2023-03-31T05:17:26.353Z,99310.47
2023-03-31T05:20:30.893Z,99309.03
2023-03-31T05:23:34.082Z,99309.84
2023-03-31T05:26:37.629Z,99306.59
2023-03-31T05:29:40.896Z,99307.13
2023-03-31T05:32:44.581Z,99307.25
2023-03-31T05:35:47.814Z,99307.41
2023-03-31T05:38:52.575Z,99301.06
2023-03-31T05:41:55.716Z,99308.59
2023-03-31T05:44:58.595Z,99301.75
2023-03-31T05:48:02.389Z,99300.31
2023-03-31T05:51:05.804Z,99308.44
2023-03-31T05:54:09.290Z,99310.53
2023-03-31T05:57:12.449Z,99311.69
2023-03-31T06:00:16.177Z,99300.19
2023-03-31T06:03:19.605Z,99304.53
2023-03-31T06:06:24.756Z,99295.62
2023-03-31T06:09:29.470Z,99298.03
2023-03-31T06:12:32.858Z,99295.34
2023-03-31T06:15:36.980Z,99300.00
2023-03-31T06:18:40.620Z,99301.56
2023-03-31T06:21:43.905Z,99296.97
2023-03-31T06:24:47.139Z,99308.22
2023-03-31T06:27:50.441Z,99304.31
2023-03-31T06:31:02.622Z,99317.16
2023-03-31T06:34:06.772Z,99311.72
2023-03-31T06:37:10.056Z,99316.00
2023-03-31T06:40:13.503Z,99311.72
2023-03-31T06:43:16.382Z,99303.59
2023-03-31T06:46:19.881Z,99302.03
2023-03-31T06:49:22.936Z,99306.28
2023-03-31T06:52:26.162Z,99298.81
2023-03-31T06:55:28.969Z,99296.78
2023-03-31T06:58:32.453Z,99295.97
2023-03-31T07:01:37.548Z,99281.78
2023-03-31T07:04:40.905Z,99281.81
2023-03-31T07:07:46.446Z,99292.47
2023-03-31T07:10:54.508Z,99278.66
2023-03-31T07:13:57.391Z,99279.66
2023-03-31T07:17:00.805Z,99277.97
2023-03-31T07:20:09.779Z,99282.59
2023-03-31T07:23:14.227Z,99273.28
2023-03-31T07:26:17.077Z,99271.19
2023-03-31T07:29:21.085Z,99270.22
2023-03-31T07:32:24.452Z,99271.03
2023-03-31T07:35:31.106Z,99256.25
2023-03-31T07:38:34.611Z,99256.75
2023-03-31T07:41:37.861Z,99247.91
2023-03-31T07:44:40.939Z,99247.59
2023-03-31T07:47:46.550Z,99248.97
2023-03-31T07:50:51.518Z,99250.22
2023-03-31T07:53:59.061Z,99250.97
2023-03-31T07:57:04.571Z,99246.03
2023-03-31T08:00:12.389Z,99240.69
2023-03-31T08:03:15.940Z,99228.16
2023-03-31T08:06:23.401Z,99220.41
2023-03-31T08:09:26.618Z,99220.56
2023-03-31T08:12:30.005Z,99221.78
2023-03-31T08:15:32.933Z,99214.50
2023-03-31T08:18:36.159Z,99207.16
2023-03-31T08:21:39.124Z,99210.19
2023-03-31T08:24:42.620Z,99204.94
2023-03-31T08:27:46.746Z,99202.09
2023-03-31T08:30:50.041Z,99190.56
2023-03-31T08:33:52.958Z,99187.22
2023-03-31T08:36:57.968Z,99183.00
2023-03-31T08:40:00.945Z,99174.91
2023-03-31T08:43:09.399Z,99175.06
2023-03-31T08:46:15.031Z,99170.75
2023-03-31T08:49:20.678Z,99161.97
2023-03-31T08:52:35.076Z,99156.38
2023-03-31T08:55:49.103Z,99149.66
2023-03-31T08:58:52.918Z,99149.84
2023-03-31T09:02:21.225Z,99146.00
2023-03-31T09:06:00.166Z,99139.44
2023-03-31T09:09:09.553Z,99131.47
2023-03-31T09:12:18.079Z,99128.22
2023-03-31T09:15:28.853Z,99115.16
2023-03-31T09:18:32.791Z,99121.06
2023-03-31T09:21:41.286Z,99111.44
2023-03-31T09:25:19.283Z,99104.44
2023-03-31T09:28:35.670Z,99092.78
2023-03-31T09:31:39.235Z,99091.16
2023-03-31T09:34:43.890Z,99087.91
2023-03-31T09:37:46.765Z,99079.88
2023-03-31T09:40:50.649Z,99081.97
2023-03-31T09:43:53.765Z,99069.50
2023-03-31T09:46:58.382Z,99068.50
2023-03-31T09:50:01.337Z,99063.16
2023-03-31T09:53:05.411Z,99054.59
2023-03-31T09:56:11.618Z,99049.09
2023-03-31T09:59:21.750Z,99040.37
2023-03-31T10:02:34.715Z,99034.22
2023-03-31T10:05:51.953Z,99035.56
2023-03-31T10:09:00.011Z,99028.84
2023-03-31T10:12:06.923Z,99020.38
2023-03-31T10:15:23.832Z,99019.19
2023-03-31T10:18:40.259Z,99002.72
2023-03-31T10:21:46.789Z,99005.38
2023-03-31T10:24:51.999Z,98999.22
2023-03-31T10:27:56.589Z,99000.00
2023-03-31T10:31:04.370Z,99005.94
2023-03-31T10:34:17.264Z,99002.03
2023-03-31T10:37:28.829Z,98995.66
2023-03-31T10:40:32.857Z,98990.69
2023-03-31T10:43:40.914Z,98977.81
2023-03-31T10:46:55.453Z,98977.16
2023-03-31T10:50:00.207Z,98957.53
2023-03-31T10:53:14.139Z,98961.50
2023-03-31T10:56:42.810Z,98961.94
2023-03-31T11:00:15.379Z,98956.97
2023-03-31T11:03:46.700Z,98962.44
2023-03-31T11:06:52.990Z,98950.53
2023-03-31T11:10:20.794Z,98947.38
2023-03-31T11:13:43.090Z,98948.84
2023-03-31T11:16:58.032Z,98936.28
2023-03-31T11:20:20.059Z,98921.59
2023-03-31T11:23:44.166Z,98913.34
2023-03-31T11:26:57.548Z,98900.38
2023-03-31T11:30:16.784Z,98888.47
2023-03-31T11:33:19.650Z,98885.16
2023-03-31T11:36:32.633Z,98881.69
2023-03-31T11:39:57.479Z,98867.56
2023-03-31T11:43:11.380Z,98869.72
2023-03-31T11:46:39.406Z,98869.16
2023-03-31T11:49:54.237Z,98864.78
2023-03-31T11:53:03.408Z,98861.94
2023-03-31T11:56:09.225Z,98852.47
2023-03-31T11:59:16.370Z,98842.31
2023-03-31T12:02:23.328Z,98832.44
2023-03-31T12:05:27.563Z,98833.66
2023-03-31T12:08:40.782Z,98831.19
2023-03-31T12:11:59.420Z,98817.84
2023-03-31T12:15:25.545Z,98823.59
2023-03-31T12:18:34.031Z,98821.19
2023-03-31T12:21:39.498Z,98810.50
2023-03-31T12:24:42.746Z,98812.59
2023-03-31T12:27:50.625Z,98806.84
2023-03-31T12:30:55.055Z,98807.34
2023-03-31T12:34:01.323Z,98801.44
2023-03-31T12:37:10.136Z,98788.53
2023-03-31T12:40:18.844Z,98781.59
2023-03-31T12:43:38.266Z,98775.16
2023-03-31T12:47:09.314Z,98759.63
2023-03-31T12:50:45.986Z,98753.50
2023-03-31T12:54:02.069Z,98735.84
2023-03-31T12:57:15.149Z,98739.19
2023-03-31T13:00:30.314Z,98737.69
2023-03-31T13:03:52.258Z,98731.94
2023-03-31T13:06:57.913Z,98720.63
2023-03-31T13:10:21.698Z,98727.91
2023-03-31T13:13:25.519Z,98709.62
2023-03-31T13:16:33.585Z,98696.16
2023-03-31T13:19:38.020Z,98705.94
2023-03-31T13:22:41.350Z,98701.22
2023-03-31T13:25:46.473Z,98691.56
2023-03-31T13:29:15.764Z,98689.63
2023-03-31T13:32:21.600Z,98671.00
2023-03-31T13:35:27.965Z,98671.47
2023-03-31T13:38:46.132Z,98656.44
2023-03-31T13:41:53.218Z,98676.03
2023-03-31T13:45:28.645Z,98675.03
2023-03-31T13:48:42.644Z,98671.53
2023-03-31T13:52:01.003Z,98682.03
2023-03-31T13:55:29.178Z,98657.81
2023-03-31T13:58:50.820Z,98651.94
2023-03-31T14:02:22.334Z,98639.59
2023-03-31T14:05:34.574Z,98638.19
2023-03-31T14:08:44.361Z,98627.53
2023-03-31T14:11:47.621Z,98621.22
2023-03-31T14:14:54.991Z,98609.03
2023-03-31T14:17:58.513Z,98581.91
2023-03-31T14:21:22.854Z,98578.22
2023-03-31T14:24:36.977Z,98565.72
2023-03-31T14:27:46.842Z,98564.84
2023-03-31T14:30:52.864Z,98565.97
2023-03-31T14:34:12.243Z,98569.81
2023-03-31T14:37:21.179Z,98552.59
2023-03-31T14:40:24.828Z,98553.87
2023-03-31T14:43:33.649Z,98541.91
2023-03-31T14:46:38.662Z,98536.78
2023-03-31T14:49:42.262Z,98534.88
2023-03-31T14:52:51.379Z,98541.25
2023-03-31T14:56:01.776Z,98539.25
2023-03-31T14:59:06.509Z,98537.31
2023-03-31T15:02:15.233Z,98535.31
2023-03-31T15:05:28.560Z,98529.31
2023-03-31T15:08:32.813Z,98518.50
2023-03-31T15:11:36.082Z,98505.28
2023-03-31T15:14:50.825Z,98497.81
2023-03-31T15:20:59.737Z,98482.31
2023-03-31T15:24:06.854Z,98479.94
2023-03-31T15:27:23.456Z,98479.09
2023-03-31T15:30:33.399Z,98460.22
2023-03-31T15:33:41.985Z,98459.03
2023-03-31T15:36:45.358Z,98451.66
2023-03-31T15:39:49.004Z,98445.81
2023-03-31T15:43:25.884Z,98448.88
2023-03-31T15:47:00.061Z,98438.19
2023-03-31T15:50:13.392Z,98442.03
2023-03-31T15:53:28.634Z,98424.97
2023-03-31T15:56:35.899Z,98426.53
2023-03-31T15:59:55.750Z,98431.34
2023-03-31T16:03:04.204Z,98428.38
2023-03-31T16:06:21.104Z,98440.59
2023-03-31T16:09:28.504Z,98441.13
2023-03-31T16:12:39.025Z,98459.84
2023-03-31T16:15:46.299Z,98461.72
2023-03-31T16:18:55.114Z,98468.81
2023-03-31T16:22:02.010Z,98457.47
2023-03-31T16:25:10.620Z,98458.59
2023-03-31T16:28:17.678Z,98462.50
2023-03-31T16:31:34.725Z,98466.78
2023-03-31T16:34:52.546Z,98479.03
2023-03-31T16:37:55.945Z,98478.16
2023-03-31T16:40:59.178Z,98479.03
2023-03-31T16:44:02.993Z,98470.72
2023-03-31T16:47:06.203Z,98486.25
2023-03-31T16:50:11.211Z,98485.56
2023-03-31T16:53:17.005Z,98485.56
2023-03-31T16:56:20.259Z,98481.50
2023-03-31T16:59:25.192Z,98474.72
2023-03-31T17:02:30.216Z,98483.25
2023-03-31T17:05:39.224Z,98478.31
2023-03-31T17:08:42.717Z,98477.91
2023-03-31T17:11:50.294Z,98476.56
2023-03-31T17:14:53.855Z,98482.53
2023-03-31T17:17:59.181Z,98479.03
2023-03-31T17:21:07.400Z,98483.38
2023-03-31T17:24:10.560Z,98479.56
2023-03-31T17:27:14.779Z,98478.44
2023-03-31T17:30:18.889Z,98484.53
2023-03-31T17:33:23.902Z,98487.47
2023-03-31T17:36:27.395Z,98494.56
2023-03-31T17:39:33.295Z,98495.19
2023-03-31T17:42:38.957Z,98495.44
2023-03-31T17:45:43.206Z,98500.66
2023-03-31T17:48:46.909Z,98493.09
2023-03-31T17:51:51.477Z,98502.56
2023-03-31T17:54:56.505Z,98512.97
2023-03-31T17:57:59.920Z,98506.81
2023-03-31T18:01:08.413Z,98514.00
2023-03-31T18:04:12.231Z,98517.84
2023-03-31T18:07:15.817Z,98529.34
2023-03-31T18:10:20.417Z,98546.38
2023-03-31T18:13:24.585Z,98534.12
2023-03-31T18:16:32.077Z,98543.81
2023-03-31T18:19:38.128Z,98559.31
2023-03-31T18:22:42.572Z,98558.72
2023-03-31T18:25:46.521Z,98567.50
2023-03-31T18:28:50.736Z,98566.72
2023-03-31T18:31:54.280Z,98578.63
2023-03-31T18:34:58.984Z,98593.06
2023-03-31T18:38:02.962Z,98589.75
2023-03-31T18:41:10.708Z,98605.91
2023-03-31T18:44:19.359Z,98597.59
2023-03-31T18:47:23.932Z,98588.19
2023-03-31T18:50:31.146Z,98589.94
2023-03-31T18:53:38.448Z,98606.87
2023-03-31T18:56:44.804Z,98596.66
2023-03-31T18:59:50.711Z,98596.88
2023-03-31T19:02:54.947Z,98596.56
2023-03-31T19:06:10.634Z,98603.22
2023-03-31T19:09:14.747Z,98597.84
2023-03-31T19:12:19.374Z,98612.84
2023-03-31T19:15:23.832Z,98609.50
2023-03-31T19:18:29.888Z,98600.03
2023-03-31T19:21:36.564Z,98591.91
2023-03-31T19:24:42.799Z,98624.62
2023-03-31T19:27:47.428Z,98600.78
2023-03-31T19:30:57.136Z,98626.81
2023-03-31T19:34:01.945Z,98600.09
2023-03-31T19:37:08.610Z,98616.53
2023-03-31T19:40:12.559Z,98619.13
2023-03-31T19:43:23.457Z,98614.97
2023-03-31T19:46:29.115Z,98612.06
2023-03-31T19:49:37.476Z,98605.78
2023-03-31T19:52:41.750Z,98607.25
2023-03-31T19:56:04.705Z,98596.47
2023-03-31T19:59:08.373Z,98597.97
2023-03-31T20:02:14.269Z,98588.72
2023-03-31T20:05:20.165Z,98584.06
2023-03-31T20:08:24.268Z,98575.97
2023-03-31T20:11:32.125Z,98563.78
2023-03-31T20:14:36.492Z,98563.34
2023-03-31T20:17:40.925Z,98564.97
2023-03-31T20:20:48.465Z,98554.56
2023-03-31T20:23:55.634Z,98551.13
2023-03-31T20:26:59.778Z,98544.94
2023-03-31T20:30:05.245Z,98535.59
2023-03-31T20:33:08.707Z,98525.16
2023-03-31T20:36:16.080Z,98511.62
2023-03-31T20:39:21.211Z,98496.44
2023-03-31T20:42:26.964Z,98499.22
2023-03-31T20:45:31.577Z,98490.69
2023-03-31T20:48:43.124Z,98489.50
2023-03-31T20:51:47.509Z,98493.31
2023-03-31T20:54:51.721Z,98492.56
2023-03-31T20:57:55.274Z,98491.75
2023-03-31T21:00:59.336Z,98490.25
2023-03-31T21:04:04.439Z,98484.84
2023-03-31T21:07:08.083Z,98482.94
2023-03-31T21:10:11.475Z,98481.00
2023-03-31T21:13:16.484Z,98471.31
2023-03-31T21:16:20.622Z,98476.19
2023-03-31T21:19:23.854Z,98467.72
2023-03-31T21:22:27.607Z,98472.00
2023-03-31T21:25:32.696Z,98477.72
2023-03-31T21:28:37.858Z,98476.50
2023-03-31T21:31:43.298Z,98478.19
2023-03-31T21:34:46.317Z,98480.09
2023-03-31T21:37:51.114Z,98480.34
2023-03-31T21:40:55.956Z,98475.44
2023-03-31T21:44:01.692Z,98461.87
2023-03-31T21:47:05.914Z,98475.16
2023-03-31T21:50:09.785Z,98494.75
2023-03-31T21:53:13.064Z,98479.16
2023-03-31T21:56:16.659Z,98486.13
2023-03-31T21:59:19.646Z,98480.72
2023-03-31T22:02:23.737Z,98473.47
2023-03-31T22:05:27.391Z,98477.00
2023-03-31T22:08:31.762Z,98479.66
2023-03-31T22:11:35.005Z,98475.16
2023-03-31T22:14:37.990Z,98475.84
2023-03-31T22:17:41.907Z,98491.41
2023-03-31T22:20:45.848Z,98479.75
2023-03-31T22:23:54.382Z,98479.94
2023-03-31T22:26:57.309Z,98475.28
2023-03-31T22:30:01.780Z,98474.25
2023-03-31T22:33:05.679Z,98478.91
2023-03-31T22:36:10.714Z,98470.16
2023-03-31T22:39:14.615Z,98458.91
2023-03-31T22:42:18.073Z,98446.91
2023-03-31T22:45:20.934Z,98446.06
2023-03-31T22:48:24.073Z,98441.19
2023-03-31T22:51:27.254Z,98433.69
2023-03-31T22:54:30.691Z,98428.19
2023-03-31T22:57:33.684Z,98424.69
2023-03-31T23:00:37.388Z,98423.84
2023-03-31T23:03:40.400Z,98423.97
2023-03-31T23:06:43.675Z,98413.19
2023-03-31T23:09:46.723Z,98413.97
2023-03-31T23:12:49.991Z,98410.47
2023-03-31T23:15:53.449Z,98412.75
2023-03-31T23:18:56.781Z,98411.53
2023-03-31T23:22:02.211Z,98419.09
2023-03-31T23:25:06.517Z,98420.00
2023-03-31T23:28:09.398Z,98415.41
2023-03-31T23:31:13.432Z,98419.34
2023-03-31T23:34:16.525Z,98420.41
2023-03-31T23:37:19.758Z,98420.75
2023-03-31T23:40:22.941Z,98422.38
2023-03-31T23:43:27.984Z,98414.59
2023-03-31T23:46:32.104Z,98411.62
2023-03-31T23:49:35.775Z,98424.94
2023-03-31T23:52:38.962Z,98420.16
2023-03-31T23:55:42.148Z,98420.34
2023-03-31T23:58:45.194Z,98424.28
